sensor_id;sensor_type;location;lat;lon;timestamp;P1;durP1;ratioP1;P2;durP2;ratioP2
83143;SDS011;73035;43.768;2.230;2024-01-06T00:00:49;5.00;;;2.15;;
83143;SDS011;73035;43.768;2.230;2024-01-06T00:03:15;4.18;;;1.73;;
83143;SDS011;73035;43.768;2.230;2024-01-06T00:05:40;4.10;;;2.22;;
83143;SDS011;73035;43.768;2.230;2024-01-06T00:08:05;3.70;;;1.85;;
83143;SDS011;73035;43.768;2.230;2024-01-06T00:10:31;4.90;;;2.15;;
83143;SDS011;73035;43.768;2.230;2024-01-06T00:12:57;5.43;;;2.08;;
83143;SDS011;73035;43.768;2.230;2024-01-06T00:15:22;4.15;;;2.10;;
83143;SDS011;73035;43.768;2.230;2024-01-06T00:17:48;2.70;;;1.83;;
83143;SDS011;73035;43.768;2.230;2024-01-06T00:20:13;3.83;;;1.80;;
83143;SDS011;73035;43.768;2.230;2024-01-06T00:22:39;3.72;;;2.22;;
83143;SDS011;73035;43.768;2.230;2024-01-06T00:25:04;7.85;;;2.05;;
83143;SDS011;73035;43.768;2.230;2024-01-06T00:27:30;3.00;;;1.90;;
83143;SDS011;73035;43.768;2.230;2024-01-06T00:29:55;2.78;;;1.70;;
83143;SDS011;73035;43.768;2.230;2024-01-06T00:32:21;4.25;;;2.00;;
83143;SDS011;73035;43.768;2.230;2024-01-06T00:34:46;4.88;;;2.20;;
83143;SDS011;73035;43.768;2.230;2024-01-06T00:37:12;3.83;;;3.20;;
83143;SDS011;73035;43.768;2.230;2024-01-06T00:39:38;5.50;;;2.00;;
83143;SDS011;73035;43.768;2.230;2024-01-06T00:42:03;3.25;;;1.95;;
83143;SDS011;73035;43.768;2.230;2024-01-06T00:44:29;5.10;;;2.00;;
83143;SDS011;73035;43.768;2.230;2024-01-06T00:46:54;5.65;;;2.40;;
83143;SDS011;73035;43.768;2.230;2024-01-06T00:49:19;4.65;;;2.63;;
83143;SDS011;73035;43.768;2.230;2024-01-06T00:51:45;6.90;;;2.65;;
83143;SDS011;73035;43.768;2.230;2024-01-06T00:54:10;4.32;;;2.00;;
83143;SDS011;73035;43.768;2.230;2024-01-06T00:56:35;4.72;;;2.03;;
83143;SDS011;73035;43.768;2.230;2024-01-06T00:59:01;4.45;;;2.00;;
83143;SDS011;73035;43.768;2.230;2024-01-06T01:01:26;5.47;;;2.38;;
83143;SDS011;73035;43.768;2.230;2024-01-06T01:03:52;3.28;;;1.95;;
83143;SDS011;73035;43.768;2.230;2024-01-06T01:06:17;4.32;;;2.28;;
83143;SDS011;73035;43.768;2.230;2024-01-06T01:08:42;5.63;;;2.10;;
83143;SDS011;73035;43.768;2.230;2024-01-06T01:11:08;4.18;;;2.28;;
83143;SDS011;73035;43.768;2.230;2024-01-06T01:13:33;4.57;;;1.90;;
83143;SDS011;73035;43.768;2.230;2024-01-06T01:15:58;4.38;;;2.45;;
83143;SDS011;73035;43.768;2.230;2024-01-06T01:18:24;4.60;;;2.13;;
83143;SDS011;73035;43.768;2.230;2024-01-06T01:20:49;6.32;;;1.70;;
83143;SDS011;73035;43.768;2.230;2024-01-06T01:23:15;5.13;;;1.90;;
83143;SDS011;73035;43.768;2.230;2024-01-06T01:25:40;3.15;;;1.85;;
83143;SDS011;73035;43.768;2.230;2024-01-06T01:28:05;5.07;;;2.28;;
83143;SDS011;73035;43.768;2.230;2024-01-06T01:30:31;5.05;;;1.98;;
83143;SDS011;73035;43.768;2.230;2024-01-06T01:32:57;4.28;;;2.33;;
83143;SDS011;73035;43.768;2.230;2024-01-06T01:35:23;6.22;;;2.17;;
83143;SDS011;73035;43.768;2.230;2024-01-06T01:37:48;4.50;;;2.33;;
83143;SDS011;73035;43.768;2.230;2024-01-06T01:40:14;4.25;;;1.83;;
83143;SDS011;73035;43.768;2.230;2024-01-06T01:42:40;3.75;;;2.08;;
83143;SDS011;73035;43.768;2.230;2024-01-06T01:45:08;3.72;;;1.88;;
83143;SDS011;73035;43.768;2.230;2024-01-06T01:47:34;4.03;;;1.80;;
83143;SDS011;73035;43.768;2.230;2024-01-06T01:50:00;6.47;;;2.33;;
83143;SDS011;73035;43.768;2.230;2024-01-06T01:52:25;3.35;;;2.72;;
83143;SDS011;73035;43.768;2.230;2024-01-06T01:54:51;2.85;;;1.77;;
83143;SDS011;73035;43.768;2.230;2024-01-06T01:57:17;3.30;;;2.20;;
83143;SDS011;73035;43.768;2.230;2024-01-06T01:59:43;3.60;;;1.80;;
83143;SDS011;73035;43.768;2.230;2024-01-06T02:02:08;3.20;;;1.70;;
83143;SDS011;73035;43.768;2.230;2024-01-06T02:04:34;4.47;;;2.15;;
83143;SDS011;73035;43.768;2.230;2024-01-06T02:07:00;4.32;;;1.92;;
83143;SDS011;73035;43.768;2.230;2024-01-06T02:09:26;4.28;;;1.80;;
83143;SDS011;73035;43.768;2.230;2024-01-06T02:11:54;3.25;;;2.13;;
83143;SDS011;73035;43.768;2.230;2024-01-06T02:14:21;3.72;;;1.92;;
83143;SDS011;73035;43.768;2.230;2024-01-06T02:16:46;3.50;;;1.75;;
83143;SDS011;73035;43.768;2.230;2024-01-06T02:19:12;5.75;;;2.80;;
83143;SDS011;73035;43.768;2.230;2024-01-06T02:21:43;4.80;;;2.25;;
83143;SDS011;73035;43.768;2.230;2024-01-06T02:24:09;3.33;;;1.85;;
83143;SDS011;73035;43.768;2.230;2024-01-06T02:26:35;7.95;;;2.05;;
83143;SDS011;73035;43.768;2.230;2024-01-06T02:29:00;6.47;;;2.10;;
83143;SDS011;73035;43.768;2.230;2024-01-06T02:31:26;6.10;;;2.45;;
83143;SDS011;73035;43.768;2.230;2024-01-06T02:33:52;5.00;;;2.00;;
83143;SDS011;73035;43.768;2.230;2024-01-06T02:36:17;3.17;;;2.05;;
83143;SDS011;73035;43.768;2.230;2024-01-06T02:38:43;3.15;;;2.10;;
83143;SDS011;73035;43.768;2.230;2024-01-06T02:41:08;3.55;;;1.75;;
83143;SDS011;73035;43.768;2.230;2024-01-06T02:43:33;5.50;;;2.10;;
83143;SDS011;73035;43.768;2.230;2024-01-06T02:45:59;6.20;;;2.47;;
83143;SDS011;73035;43.768;2.230;2024-01-06T02:48:24;2.78;;;1.88;;
83143;SDS011;73035;43.768;2.230;2024-01-06T02:50:50;3.72;;;1.90;;
83143;SDS011;73035;43.768;2.230;2024-01-06T02:53:15;2.97;;;2.15;;
83143;SDS011;73035;43.768;2.230;2024-01-06T02:55:40;4.85;;;2.10;;
83143;SDS011;73035;43.768;2.230;2024-01-06T02:58:06;4.55;;;2.22;;
83143;SDS011;73035;43.768;2.230;2024-01-06T03:00:31;5.15;;;2.03;;
83143;SDS011;73035;43.768;2.230;2024-01-06T03:02:56;3.92;;;2.08;;
83143;SDS011;73035;43.768;2.230;2024-01-06T03:05:22;2.70;;;1.70;;
83143;SDS011;73035;43.768;2.230;2024-01-06T03:07:47;4.68;;;2.40;;
83143;SDS011;73035;43.768;2.230;2024-01-06T03:10:12;3.90;;;2.00;;
83143;SDS011;73035;43.768;2.230;2024-01-06T03:12:38;5.15;;;2.65;;
83143;SDS011;73035;43.768;2.230;2024-01-06T03:15:03;3.58;;;2.42;;
83143;SDS011;73035;43.768;2.230;2024-01-06T03:17:29;3.35;;;2.15;;
83143;SDS011;73035;43.768;2.230;2024-01-06T03:19:54;4.35;;;2.28;;
83143;SDS011;73035;43.768;2.230;2024-01-06T03:22:19;4.25;;;2.60;;
83143;SDS011;73035;43.768;2.230;2024-01-06T03:24:45;3.47;;;2.15;;
83143;SDS011;73035;43.768;2.230;2024-01-06T03:27:10;3.60;;;2.92;;
83143;SDS011;73035;43.768;2.230;2024-01-06T03:29:37;5.15;;;2.50;;
83143;SDS011;73035;43.768;2.230;2024-01-06T03:32:03;3.45;;;2.00;;
83143;SDS011;73035;43.768;2.230;2024-01-06T03:34:28;4.15;;;2.22;;
83143;SDS011;73035;43.768;2.230;2024-01-06T03:36:54;3.83;;;1.88;;
83143;SDS011;73035;43.768;2.230;2024-01-06T03:39:19;5.00;;;2.33;;
83143;SDS011;73035;43.768;2.230;2024-01-06T03:41:44;7.32;;;2.33;;
83143;SDS011;73035;43.768;2.230;2024-01-06T03:44:10;3.83;;;1.95;;
83143;SDS011;73035;43.768;2.230;2024-01-06T03:46:36;4.80;;;1.92;;
83143;SDS011;73035;43.768;2.230;2024-01-06T03:49:02;4.40;;;2.63;;
83143;SDS011;73035;43.768;2.230;2024-01-06T03:51:27;3.20;;;2.08;;
83143;SDS011;73035;43.768;2.230;2024-01-06T03:53:53;3.38;;;2.15;;
83143;SDS011;73035;43.768;2.230;2024-01-06T03:56:18;3.30;;;1.95;;
83143;SDS011;73035;43.768;2.230;2024-01-06T03:58:43;4.00;;;2.33;;
83143;SDS011;73035;43.768;2.230;2024-01-06T04:01:09;3.17;;;2.20;;
83143;SDS011;73035;43.768;2.230;2024-01-06T04:03:35;3.05;;;1.90;;
83143;SDS011;73035;43.768;2.230;2024-01-06T04:06:00;4.78;;;2.10;;
83143;SDS011;73035;43.768;2.230;2024-01-06T04:08:26;4.57;;;2.10;;
83143;SDS011;73035;43.768;2.230;2024-01-06T04:10:51;4.40;;;2.33;;
83143;SDS011;73035;43.768;2.230;2024-01-06T04:13:16;4.15;;;2.35;;
83143;SDS011;73035;43.768;2.230;2024-01-06T04:15:42;2.80;;;1.67;;
83143;SDS011;73035;43.768;2.230;2024-01-06T04:18:07;4.07;;;1.92;;
83143;SDS011;73035;43.768;2.230;2024-01-06T04:20:34;4.15;;;1.92;;
83143;SDS011;73035;43.768;2.230;2024-01-06T04:22:59;3.47;;;2.15;;
83143;SDS011;73035;43.768;2.230;2024-01-06T04:25:24;6.13;;;2.08;;
83143;SDS011;73035;43.768;2.230;2024-01-06T04:27:50;3.03;;;1.52;;
83143;SDS011;73035;43.768;2.230;2024-01-06T04:30:15;5.10;;;2.50;;
83143;SDS011;73035;43.768;2.230;2024-01-06T04:32:41;4.13;;;2.33;;
83143;SDS011;73035;43.768;2.230;2024-01-06T04:35:07;4.07;;;2.38;;
83143;SDS011;73035;43.768;2.230;2024-01-06T04:37:32;3.33;;;1.80;;
83143;SDS011;73035;43.768;2.230;2024-01-06T04:39:58;4.13;;;1.95;;
83143;SDS011;73035;43.768;2.230;2024-01-06T04:42:23;4.88;;;2.28;;
83143;SDS011;73035;43.768;2.230;2024-01-06T04:44:49;4.05;;;1.75;;
83143;SDS011;73035;43.768;2.230;2024-01-06T04:47:15;5.57;;;2.25;;
83143;SDS011;73035;43.768;2.230;2024-01-06T04:49:40;3.35;;;1.80;;
83143;SDS011;73035;43.768;2.230;2024-01-06T04:52:06;2.67;;;1.70;;
83143;SDS011;73035;43.768;2.230;2024-01-06T04:54:31;6.30;;;2.30;;
83143;SDS011;73035;43.768;2.230;2024-01-06T04:56:58;3.47;;;1.85;;
83143;SDS011;73035;43.768;2.230;2024-01-06T04:59:23;3.95;;;1.70;;
83143;SDS011;73035;43.768;2.230;2024-01-06T05:01:49;3.47;;;1.77;;
83143;SDS011;73035;43.768;2.230;2024-01-06T05:04:16;6.00;;;2.03;;
83143;SDS011;73035;43.768;2.230;2024-01-06T05:06:41;4.95;;;1.48;;
83143;SDS011;73035;43.768;2.230;2024-01-06T05:09:07;3.05;;;1.67;;
83143;SDS011;73035;43.768;2.230;2024-01-06T05:11:32;2.92;;;1.55;;
83143;SDS011;73035;43.768;2.230;2024-01-06T05:13:57;2.78;;;2.20;;
83143;SDS011;73035;43.768;2.230;2024-01-06T05:16:23;3.42;;;1.90;;
83143;SDS011;73035;43.768;2.230;2024-01-06T05:18:48;2.80;;;1.60;;
83143;SDS011;73035;43.768;2.230;2024-01-06T05:21:13;3.55;;;2.03;;
83143;SDS011;73035;43.768;2.230;2024-01-06T05:23:39;5.20;;;2.33;;
83143;SDS011;73035;43.768;2.230;2024-01-06T05:26:04;2.72;;;1.92;;
83143;SDS011;73035;43.768;2.230;2024-01-06T05:28:30;3.85;;;1.73;;
83143;SDS011;73035;43.768;2.230;2024-01-06T05:30:55;3.10;;;2.03;;
83143;SDS011;73035;43.768;2.230;2024-01-06T05:33:21;3.75;;;1.83;;
83143;SDS011;73035;43.768;2.230;2024-01-06T05:35:46;5.88;;;1.90;;
83143;SDS011;73035;43.768;2.230;2024-01-06T05:38:11;3.28;;;1.88;;
83143;SDS011;73035;43.768;2.230;2024-01-06T05:40:37;3.75;;;1.60;;
83143;SDS011;73035;43.768;2.230;2024-01-06T05:43:02;3.95;;;2.08;;
83143;SDS011;73035;43.768;2.230;2024-01-06T05:45:28;4.78;;;2.25;;
83143;SDS011;73035;43.768;2.230;2024-01-06T05:47:53;4.53;;;2.30;;
83143;SDS011;73035;43.768;2.230;2024-01-06T05:50:18;3.90;;;2.22;;
83143;SDS011;73035;43.768;2.230;2024-01-06T05:52:44;4.25;;;2.55;;
83143;SDS011;73035;43.768;2.230;2024-01-06T05:55:12;2.42;;;1.45;;
83143;SDS011;73035;43.768;2.230;2024-01-06T05:57:37;3.47;;;2.10;;
83143;SDS011;73035;43.768;2.230;2024-01-06T06:00:03;3.50;;;2.05;;
83143;SDS011;73035;43.768;2.230;2024-01-06T06:02:29;5.05;;;2.25;;
83143;SDS011;73035;43.768;2.230;2024-01-06T06:04:55;4.47;;;2.20;;
83143;SDS011;73035;43.768;2.230;2024-01-06T06:07:20;3.65;;;2.75;;
83143;SDS011;73035;43.768;2.230;2024-01-06T06:09:45;5.35;;;2.40;;
83143;SDS011;73035;43.768;2.230;2024-01-06T06:12:13;3.50;;;2.58;;
83143;SDS011;73035;43.768;2.230;2024-01-06T06:14:39;5.93;;;2.72;;
83143;SDS011;73035;43.768;2.230;2024-01-06T06:17:04;5.63;;;3.03;;
83143;SDS011;73035;43.768;2.230;2024-01-06T06:19:30;3.33;;;2.35;;
83143;SDS011;73035;43.768;2.230;2024-01-06T06:21:56;6.03;;;2.35;;
83143;SDS011;73035;43.768;2.230;2024-01-06T06:24:21;4.32;;;2.67;;
83143;SDS011;73035;43.768;2.230;2024-01-06T06:26:46;6.80;;;2.90;;
83143;SDS011;73035;43.768;2.230;2024-01-06T06:29:12;3.45;;;2.53;;
83143;SDS011;73035;43.768;2.230;2024-01-06T06:31:37;6.38;;;2.45;;
83143;SDS011;73035;43.768;2.230;2024-01-06T06:34:02;5.18;;;2.72;;
83143;SDS011;73035;43.768;2.230;2024-01-06T06:36:28;3.60;;;2.42;;
83143;SDS011;73035;43.768;2.230;2024-01-06T06:38:54;4.28;;;3.25;;
83143;SDS011;73035;43.768;2.230;2024-01-06T06:41:19;4.45;;;2.72;;
83143;SDS011;73035;43.768;2.230;2024-01-06T06:43:45;3.63;;;2.83;;
83143;SDS011;73035;43.768;2.230;2024-01-06T06:46:10;3.95;;;3.15;;
83143;SDS011;73035;43.768;2.230;2024-01-06T06:48:35;4.55;;;2.65;;
83143;SDS011;73035;43.768;2.230;2024-01-06T06:51:01;4.78;;;2.30;;
83143;SDS011;73035;43.768;2.230;2024-01-06T06:53:27;7.60;;;2.70;;
83143;SDS011;73035;43.768;2.230;2024-01-06T06:55:52;6.18;;;2.72;;
83143;SDS011;73035;43.768;2.230;2024-01-06T06:58:17;5.82;;;2.38;;
83143;SDS011;73035;43.768;2.230;2024-01-06T07:00:43;5.70;;;5.13;;
83143;SDS011;73035;43.768;2.230;2024-01-06T07:03:09;4.65;;;2.22;;
83143;SDS011;73035;43.768;2.230;2024-01-06T07:05:34;5.32;;;2.70;;
83143;SDS011;73035;43.768;2.230;2024-01-06T07:08:00;5.00;;;2.80;;
83143;SDS011;73035;43.768;2.230;2024-01-06T07:10:25;5.20;;;2.67;;
83143;SDS011;73035;43.768;2.230;2024-01-06T07:12:51;5.68;;;2.35;;
83143;SDS011;73035;43.768;2.230;2024-01-06T07:15:16;5.93;;;3.13;;
83143;SDS011;73035;43.768;2.230;2024-01-06T07:17:41;4.50;;;2.53;;
83143;SDS011;73035;43.768;2.230;2024-01-06T07:20:07;5.47;;;3.08;;
83143;SDS011;73035;43.768;2.230;2024-01-06T07:22:33;4.32;;;3.42;;
83143;SDS011;73035;43.768;2.230;2024-01-06T07:25:01;3.83;;;2.85;;
83143;SDS011;73035;43.768;2.230;2024-01-06T07:27:27;6.00;;;2.65;;
83143;SDS011;73035;43.768;2.230;2024-01-06T07:29:52;5.90;;;2.72;;
83143;SDS011;73035;43.768;2.230;2024-01-06T07:32:18;5.80;;;3.03;;
83143;SDS011;73035;43.768;2.230;2024-01-06T07:34:43;5.35;;;3.30;;
83143;SDS011;73035;43.768;2.230;2024-01-06T07:37:09;5.00;;;2.80;;
83143;SDS011;73035;43.768;2.230;2024-01-06T07:39:34;6.57;;;3.08;;
83143;SDS011;73035;43.768;2.230;2024-01-06T07:41:59;5.88;;;2.38;;
83143;SDS011;73035;43.768;2.230;2024-01-06T07:44:25;6.85;;;3.13;;
83143;SDS011;73035;43.768;2.230;2024-01-06T07:46:50;5.75;;;2.95;;
83143;SDS011;73035;43.768;2.230;2024-01-06T07:49:17;6.63;;;4.38;;
83143;SDS011;73035;43.768;2.230;2024-01-06T07:51:43;4.95;;;3.22;;
83143;SDS011;73035;43.768;2.230;2024-01-06T07:54:08;10.60;;;3.33;;
83143;SDS011;73035;43.768;2.230;2024-01-06T07:56:34;7.63;;;3.30;;
83143;SDS011;73035;43.768;2.230;2024-01-06T07:59:00;6.40;;;3.35;;
83143;SDS011;73035;43.768;2.230;2024-01-06T08:01:26;5.53;;;3.25;;
83143;SDS011;73035;43.768;2.230;2024-01-06T08:03:51;5.15;;;2.78;;
83143;SDS011;73035;43.768;2.230;2024-01-06T08:08:43;6.13;;;2.77;;
83143;SDS011;73035;43.768;2.230;2024-01-06T08:11:08;4.10;;;2.88;;
83143;SDS011;73035;43.768;2.230;2024-01-06T08:13:33;5.28;;;2.92;;
83143;SDS011;73035;43.768;2.230;2024-01-06T08:15:59;6.07;;;3.33;;
83143;SDS011;73035;43.768;2.230;2024-01-06T08:18:25;5.88;;;3.13;;
83143;SDS011;73035;43.768;2.230;2024-01-06T08:20:50;10.52;;;3.47;;
83143;SDS011;73035;43.768;2.230;2024-01-06T08:23:15;4.30;;;2.53;;
83143;SDS011;73035;43.768;2.230;2024-01-06T08:25:42;7.68;;;3.03;;
83143;SDS011;73035;43.768;2.230;2024-01-06T08:28:08;7.25;;;3.45;;
83143;SDS011;73035;43.768;2.230;2024-01-06T08:30:33;6.82;;;3.40;;
83143;SDS011;73035;43.768;2.230;2024-01-06T08:32:59;4.95;;;3.15;;
83143;SDS011;73035;43.768;2.230;2024-01-06T08:35:24;6.53;;;3.63;;
83143;SDS011;73035;43.768;2.230;2024-01-06T08:37:50;6.50;;;3.10;;
83143;SDS011;73035;43.768;2.230;2024-01-06T08:40:15;5.25;;;3.47;;
83143;SDS011;73035;43.768;2.230;2024-01-06T08:42:41;4.93;;;2.85;;
83143;SDS011;73035;43.768;2.230;2024-01-06T08:45:06;6.85;;;2.90;;
83143;SDS011;73035;43.768;2.230;2024-01-06T08:47:32;4.68;;;3.00;;
83143;SDS011;73035;43.768;2.230;2024-01-06T08:49:57;4.85;;;2.83;;
83143;SDS011;73035;43.768;2.230;2024-01-06T08:52:22;4.20;;;3.55;;
83143;SDS011;73035;43.768;2.230;2024-01-06T08:54:48;7.03;;;3.83;;
83143;SDS011;73035;43.768;2.230;2024-01-06T08:59:39;7.15;;;3.85;;
83143;SDS011;73035;43.768;2.230;2024-01-06T09:02:05;8.23;;;3.60;;
83143;SDS011;73035;43.768;2.230;2024-01-06T09:04:30;6.88;;;3.25;;
83143;SDS011;73035;43.768;2.230;2024-01-06T09:06:56;5.55;;;3.50;;
83143;SDS011;73035;43.768;2.230;2024-01-06T09:09:21;6.53;;;2.88;;
83143;SDS011;73035;43.768;2.230;2024-01-06T09:11:48;6.65;;;3.65;;
83143;SDS011;73035;43.768;2.230;2024-01-06T09:14:14;7.00;;;3.60;;
83143;SDS011;73035;43.768;2.230;2024-01-06T09:16:39;7.65;;;3.83;;
83143;SDS011;73035;43.768;2.230;2024-01-06T09:19:05;5.72;;;3.50;;
83143;SDS011;73035;43.768;2.230;2024-01-06T09:21:30;6.78;;;3.53;;
83143;SDS011;73035;43.768;2.230;2024-01-06T09:23:55;6.50;;;3.72;;
83143;SDS011;73035;43.768;2.230;2024-01-06T09:26:21;8.43;;;3.47;;
83143;SDS011;73035;43.768;2.230;2024-01-06T09:28:46;6.55;;;3.65;;
83143;SDS011;73035;43.768;2.230;2024-01-06T09:31:12;4.75;;;3.45;;
83143;SDS011;73035;43.768;2.230;2024-01-06T09:33:38;4.93;;;3.15;;
83143;SDS011;73035;43.768;2.230;2024-01-06T09:36:04;4.50;;;3.22;;
83143;SDS011;73035;43.768;2.230;2024-01-06T09:38:29;6.05;;;3.95;;
83143;SDS011;73035;43.768;2.230;2024-01-06T09:40:55;7.82;;;3.90;;
83143;SDS011;73035;43.768;2.230;2024-01-06T09:43:20;4.93;;;3.67;;
83143;SDS011;73035;43.768;2.230;2024-01-06T09:45:48;4.45;;;2.83;;
83143;SDS011;73035;43.768;2.230;2024-01-06T09:48:18;4.70;;;3.20;;
83143;SDS011;73035;43.768;2.230;2024-01-06T09:50:45;6.20;;;3.10;;
83143;SDS011;73035;43.768;2.230;2024-01-06T09:53:11;4.55;;;3.20;;
83143;SDS011;73035;43.768;2.230;2024-01-06T09:55:37;5.00;;;2.47;;
83143;SDS011;73035;43.768;2.230;2024-01-06T09:58:03;6.88;;;3.80;;
83143;SDS011;73035;43.768;2.230;2024-01-06T10:00:30;5.25;;;2.47;;
83143;SDS011;73035;43.768;2.230;2024-01-06T10:02:55;4.95;;;2.78;;
83143;SDS011;73035;43.768;2.230;2024-01-06T10:05:20;5.88;;;2.80;;
83143;SDS011;73035;43.768;2.230;2024-01-06T10:07:46;6.07;;;2.60;;
83143;SDS011;73035;43.768;2.230;2024-01-06T10:10:12;3.75;;;2.60;;
83143;SDS011;73035;43.768;2.230;2024-01-06T10:12:38;4.40;;;3.30;;
83143;SDS011;73035;43.768;2.230;2024-01-06T10:15:10;4.22;;;3.20;;
83143;SDS011;73035;43.768;2.230;2024-01-06T10:17:36;5.78;;;2.40;;
83143;SDS011;73035;43.768;2.230;2024-01-06T10:20:05;3.75;;;2.55;;
83143;SDS011;73035;43.768;2.230;2024-01-06T10:22:35;5.55;;;2.75;;
83143;SDS011;73035;43.768;2.230;2024-01-06T10:25:01;5.70;;;2.45;;
83143;SDS011;73035;43.768;2.230;2024-01-06T10:27:27;3.60;;;2.47;;
83143;SDS011;73035;43.768;2.230;2024-01-06T10:29:53;3.38;;;2.33;;
83143;SDS011;73035;43.768;2.230;2024-01-06T10:32:18;3.05;;;2.28;;
83143;SDS011;73035;43.768;2.230;2024-01-06T10:34:43;3.72;;;2.33;;
83143;SDS011;73035;43.768;2.230;2024-01-06T10:37:10;3.72;;;2.30;;
83143;SDS011;73035;43.768;2.230;2024-01-06T10:39:35;2.63;;;2.00;;
83143;SDS011;73035;43.768;2.230;2024-01-06T10:42:01;3.20;;;2.00;;
83143;SDS011;73035;43.768;2.230;2024-01-06T10:44:28;3.50;;;2.00;;
83143;SDS011;73035;43.768;2.230;2024-01-06T10:46:54;3.42;;;2.60;;
83143;SDS011;73035;43.768;2.230;2024-01-06T10:49:20;3.17;;;2.13;;
83143;SDS011;73035;43.768;2.230;2024-01-06T10:51:48;5.57;;;2.33;;
83143;SDS011;73035;43.768;2.230;2024-01-06T10:54:13;3.03;;;2.13;;
83143;SDS011;73035;43.768;2.230;2024-01-06T10:56:39;4.50;;;1.90;;
83143;SDS011;73035;43.768;2.230;2024-01-06T10:59:04;3.53;;;1.70;;
83143;SDS011;73035;43.768;2.230;2024-01-06T11:01:30;3.83;;;2.42;;
83143;SDS011;73035;43.768;2.230;2024-01-06T11:03:56;2.78;;;1.70;;
83143;SDS011;73035;43.768;2.230;2024-01-06T11:06:22;3.10;;;2.00;;
83143;SDS011;73035;43.768;2.230;2024-01-06T11:08:53;4.95;;;2.00;;
83143;SDS011;73035;43.768;2.230;2024-01-06T11:11:43;5.47;;;1.60;;
83143;SDS011;73035;43.768;2.230;2024-01-06T11:14:22;3.05;;;1.88;;
83143;SDS011;73035;43.768;2.230;2024-01-06T11:16:49;3.55;;;1.98;;
83143;SDS011;73035;43.768;2.230;2024-01-06T11:24:43;4.38;;;2.40;;
83143;SDS011;73035;43.768;2.230;2024-01-06T11:27:16;4.05;;;2.47;;
83143;SDS011;73035;43.768;2.230;2024-01-06T11:29:43;2.83;;;1.58;;
83143;SDS011;73035;43.768;2.230;2024-01-06T11:32:20;3.20;;;2.00;;
83143;SDS011;73035;43.768;2.230;2024-01-06T11:34:55;4.38;;;2.28;;
83143;SDS011;73035;43.768;2.230;2024-01-06T11:39:51;2.80;;;1.90;;
83143;SDS011;73035;43.768;2.230;2024-01-06T11:42:18;3.70;;;1.73;;
83143;SDS011;73035;43.768;2.230;2024-01-06T11:44:44;3.78;;;2.17;;
83143;SDS011;73035;43.768;2.230;2024-01-06T11:47:11;5.13;;;2.00;;
83143;SDS011;73035;43.768;2.230;2024-01-06T11:52:02;3.40;;;1.73;;
83143;SDS011;73035;43.768;2.230;2024-01-06T11:54:27;5.25;;;2.15;;
83143;SDS011;73035;43.768;2.230;2024-01-06T11:56:53;3.38;;;1.80;;
83143;SDS011;73035;43.768;2.230;2024-01-06T11:59:19;5.68;;;2.70;;
83143;SDS011;73035;43.768;2.230;2024-01-06T12:01:45;3.58;;;1.85;;
83143;SDS011;73035;43.768;2.230;2024-01-06T12:04:13;3.33;;;1.95;;
83143;SDS011;73035;43.768;2.230;2024-01-06T12:06:39;4.30;;;2.38;;
83143;SDS011;73035;43.768;2.230;2024-01-06T12:09:05;2.25;;;1.70;;
83143;SDS011;73035;43.768;2.230;2024-01-06T12:11:31;2.75;;;2.10;;
83143;SDS011;73035;43.768;2.230;2024-01-06T12:13:56;3.60;;;1.92;;
83143;SDS011;73035;43.768;2.230;2024-01-06T12:16:22;3.20;;;2.10;;
83143;SDS011;73035;43.768;2.230;2024-01-06T12:18:51;3.22;;;2.17;;
83143;SDS011;73035;43.768;2.230;2024-01-06T12:21:17;2.67;;;1.92;;
83143;SDS011;73035;43.768;2.230;2024-01-06T12:23:43;4.22;;;2.03;;
83143;SDS011;73035;43.768;2.230;2024-01-06T12:26:09;2.88;;;2.10;;
83143;SDS011;73035;43.768;2.230;2024-01-06T12:28:38;4.32;;;2.13;;
83143;SDS011;73035;43.768;2.230;2024-01-06T12:31:04;2.33;;;1.33;;
83143;SDS011;73035;43.768;2.230;2024-01-06T12:33:30;3.38;;;1.60;;
83143;SDS011;73035;43.768;2.230;2024-01-06T12:35:57;2.60;;;1.40;;
83143;SDS011;73035;43.768;2.230;2024-01-06T12:38:23;3.22;;;1.50;;
83143;SDS011;73035;43.768;2.230;2024-01-06T12:40:52;3.33;;;1.85;;
83143;SDS011;73035;43.768;2.230;2024-01-06T12:43:19;3.70;;;1.60;;
83143;SDS011;73035;43.768;2.230;2024-01-06T12:45:44;3.95;;;2.05;;
83143;SDS011;73035;43.768;2.230;2024-01-06T12:48:10;3.03;;;1.95;;
83143;SDS011;73035;43.768;2.230;2024-01-06T12:50:36;2.80;;;1.75;;
83143;SDS011;73035;43.768;2.230;2024-01-06T12:53:01;3.72;;;1.90;;
83143;SDS011;73035;43.768;2.230;2024-01-06T12:55:27;3.35;;;2.25;;
83143;SDS011;73035;43.768;2.230;2024-01-06T12:57:52;5.07;;;1.92;;
83143;SDS011;73035;43.768;2.230;2024-01-06T13:00:18;6.28;;;2.58;;
83143;SDS011;73035;43.768;2.230;2024-01-06T13:02:43;3.83;;;2.25;;
83143;SDS011;73035;43.768;2.230;2024-01-06T13:05:08;4.22;;;1.92;;
83143;SDS011;73035;43.768;2.230;2024-01-06T13:07:34;3.45;;;1.92;;
83143;SDS011;73035;43.768;2.230;2024-01-06T13:10:00;2.95;;;1.95;;
83143;SDS011;73035;43.768;2.230;2024-01-06T13:12:25;3.55;;;2.28;;
83143;SDS011;73035;43.768;2.230;2024-01-06T13:17:17;4.37;;;2.10;;
83143;SDS011;73035;43.768;2.230;2024-01-06T13:19:42;2.90;;;2.13;;
83143;SDS011;73035;43.768;2.230;2024-01-06T13:22:08;2.97;;;1.95;;
83143;SDS011;73035;43.768;2.230;2024-01-06T13:24:33;5.50;;;2.75;;
83143;SDS011;73035;43.768;2.230;2024-01-06T13:26:58;4.22;;;2.28;;
83143;SDS011;73035;43.768;2.230;2024-01-06T13:29:27;3.78;;;2.28;;
83143;SDS011;73035;43.768;2.230;2024-01-06T13:31:53;4.72;;;2.85;;
83143;SDS011;73035;43.768;2.230;2024-01-06T13:34:18;4.53;;;2.10;;
83143;SDS011;73035;43.768;2.230;2024-01-06T13:36:44;4.40;;;2.35;;
83143;SDS011;73035;43.768;2.230;2024-01-06T13:39:09;4.03;;;2.60;;
83143;SDS011;73035;43.768;2.230;2024-01-06T13:44:07;3.97;;;2.93;;
83143;SDS011;73035;43.768;2.230;2024-01-06T13:46:32;3.63;;;2.45;;
83143;SDS011;73035;43.768;2.230;2024-01-06T13:48:57;4.00;;;2.70;;
83143;SDS011;73035;43.768;2.230;2024-01-06T13:51:23;3.63;;;2.70;;
83143;SDS011;73035;43.768;2.230;2024-01-06T13:53:48;4.80;;;2.70;;
83143;SDS011;73035;43.768;2.230;2024-01-06T13:56:14;4.03;;;2.28;;
83143;SDS011;73035;43.768;2.230;2024-01-06T13:58:39;4.20;;;2.70;;
83143;SDS011;73035;43.768;2.230;2024-01-06T14:01:05;5.10;;;2.67;;
83143;SDS011;73035;43.768;2.230;2024-01-06T14:03:30;5.20;;;2.40;;
83143;SDS011;73035;43.768;2.230;2024-01-06T14:05:55;4.07;;;2.08;;
83143;SDS011;73035;43.768;2.230;2024-01-06T14:08:21;7.03;;;2.78;;
83143;SDS011;73035;43.768;2.230;2024-01-06T14:10:46;2.42;;;1.63;;
83143;SDS011;73035;43.768;2.230;2024-01-06T14:13:11;3.00;;;1.85;;
83143;SDS011;73035;43.768;2.230;2024-01-06T14:15:37;4.50;;;2.08;;
83143;SDS011;73035;43.768;2.230;2024-01-06T14:18:03;4.22;;;2.70;;
83143;SDS011;73035;43.768;2.230;2024-01-06T14:20:29;5.50;;;1.92;;
83143;SDS011;73035;43.768;2.230;2024-01-06T14:22:56;3.88;;;2.70;;
83143;SDS011;73035;43.768;2.230;2024-01-06T14:25:22;3.75;;;2.40;;
83143;SDS011;73035;43.768;2.230;2024-01-06T14:27:47;5.47;;;1.98;;
83143;SDS011;73035;43.768;2.230;2024-01-06T14:30:13;3.55;;;2.05;;
83143;SDS011;73035;43.768;2.230;2024-01-06T14:32:39;4.45;;;1.83;;
83143;SDS011;73035;43.768;2.230;2024-01-06T14:35:05;6.13;;;2.72;;
83143;SDS011;73035;43.768;2.230;2024-01-06T14:37:31;3.25;;;1.88;;
83143;SDS011;73035;43.768;2.230;2024-01-06T14:40:00;3.28;;;2.20;;
83143;SDS011;73035;43.768;2.230;2024-01-06T14:42:30;3.60;;;1.85;;
83143;SDS011;73035;43.768;2.230;2024-01-06T14:44:56;3.08;;;1.80;;
83143;SDS011;73035;43.768;2.230;2024-01-06T14:47:21;1.88;;;1.45;;
83143;SDS011;73035;43.768;2.230;2024-01-06T14:49:46;2.92;;;1.70;;
83143;SDS011;73035;43.768;2.230;2024-01-06T14:52:11;3.88;;;1.65;;
83143;SDS011;73035;43.768;2.230;2024-01-06T14:54:37;3.35;;;1.83;;
83143;SDS011;73035;43.768;2.230;2024-01-06T14:57:02;2.25;;;1.40;;
83143;SDS011;73035;43.768;2.230;2024-01-06T14:59:28;2.40;;;1.65;;